createdAt,value
2018-12-26T00:00:05.792Z,51.90
2018-12-26T00:00:37.088Z,51.90
2018-12-26T00:01:08.248Z,51.90
2018-12-26T00:01:39.466Z,51.80
2018-12-26T00:02:10.699Z,51.90
2018-12-26T00:02:41.941Z,52.00
2018-12-26T00:03:13.090Z,51.90
2018-12-26T00:03:44.426Z,52.00
2018-12-26T00:04:15.592Z,52.00
2018-12-26T00:04:46.746Z,52.00
2018-12-26T00:05:17.904Z,52.10
2018-12-26T00:05:49.489Z,52.00
2018-12-26T00:06:20.708Z,52.10
2018-12-26T00:06:52.093Z,52.00
2018-12-26T00:07:23.360Z,52.10
2018-12-26T00:07:54.774Z,52.10
2018-12-26T00:08:26.013Z,52.00
2018-12-26T00:08:57.308Z,52.00
2018-12-26T00:09:28.554Z,52.00
2018-12-26T00:09:59.705Z,52.00
2018-12-26T00:10:30.853Z,52.00
2018-12-26T00:11:02.132Z,52.10
2018-12-26T00:11:33.521Z,52.00
2018-12-26T00:12:04.667Z,52.00
2018-12-26T00:12:35.824Z,52.10
2018-12-26T00:13:07.273Z,52.10
2018-12-26T00:13:38.667Z,52.10
2018-12-26T00:14:10.088Z,52.10
2018-12-26T00:14:41.246Z,52.10
2018-12-26T00:15:12.397Z,52.10
2018-12-26T00:15:43.712Z,52.10
2018-12-26T00:16:14.862Z,52.00
2018-12-26T00:16:46.010Z,52.00
2018-12-26T00:17:17.182Z,52.00
2018-12-26T00:17:48.325Z,52.00
2018-12-26T00:18:19.505Z,52.00
2018-12-26T00:18:51.006Z,52.00
2018-12-26T00:19:22.193Z,52.00
2018-12-26T00:19:53.679Z,52.00
2018-12-26T00:20:27.316Z,52.00
2018-12-26T00:20:58.033Z,52.00
2018-12-26T00:21:29.773Z,52.00
2018-12-26T00:22:00.927Z,52.00
2018-12-26T00:22:32.078Z,52.00
2018-12-26T00:23:03.498Z,52.00
2018-12-26T00:23:34.651Z,52.00
2018-12-26T00:24:05.873Z,51.90
2018-12-26T00:24:37.161Z,51.90
2018-12-26T00:25:08.421Z,51.90
2018-12-26T00:25:39.633Z,51.80
2018-12-26T00:26:10.770Z,51.80
2018-12-26T00:26:41.935Z,51.70
2018-12-26T00:27:13.944Z,51.80
2018-12-26T00:27:45.093Z,51.70
2018-12-26T00:28:16.251Z,51.80
2018-12-26T00:28:47.460Z,51.80
2018-12-26T00:29:18.612Z,51.80
2018-12-26T00:29:49.776Z,51.80
2018-12-26T00:30:20.927Z,51.80
2018-12-26T00:30:52.072Z,51.80
2018-12-26T00:31:23.222Z,51.70
2018-12-26T00:31:54.368Z,51.80
2018-12-26T00:32:25.619Z,51.80
2018-12-26T00:32:56.804Z,51.70
2018-12-26T00:33:27.955Z,51.80
2018-12-26T00:33:59.108Z,51.70
2018-12-26T00:34:30.507Z,51.70
2018-12-26T00:35:01.938Z,51.70
2018-12-26T00:35:33.092Z,51.70
2018-12-26T00:36:04.240Z,51.70
2018-12-26T00:36:35.388Z,51.70
2018-12-26T00:37:06.536Z,51.70
2018-12-26T00:37:37.692Z,51.80
2018-12-26T00:38:09.166Z,51.80
2018-12-26T00:38:40.312Z,51.70
2018-12-26T00:39:11.726Z,51.70
2018-12-26T00:39:42.882Z,51.70
2018-12-26T00:40:14.026Z,51.70
2018-12-26T00:40:45.229Z,51.80
2018-12-26T00:41:16.386Z,51.80
2018-12-26T00:41:47.532Z,51.80
2018-12-26T00:42:18.679Z,51.80
2018-12-26T00:42:50.066Z,51.80
2018-12-26T00:43:21.218Z,51.80
2018-12-26T00:43:52.390Z,51.90
2018-12-26T00:44:23.549Z,51.90
2018-12-26T00:44:54.717Z,51.90
2018-12-26T00:45:25.877Z,51.90
2018-12-26T00:45:57.035Z,52.00
2018-12-26T00:46:28.190Z,52.00
2018-12-26T00:46:59.566Z,51.90
2018-12-26T00:47:30.738Z,52.00
2018-12-26T00:48:02.219Z,51.90
2018-12-26T00:48:33.361Z,52.00
2018-12-26T00:49:04.762Z,52.00
2018-12-26T00:49:35.903Z,51.90
2018-12-26T00:50:07.063Z,51.80
2018-12-26T00:50:38.438Z,51.80
2018-12-26T00:51:09.599Z,51.80
2018-12-26T00:51:40.750Z,51.80
2018-12-26T00:52:11.902Z,51.70
2018-12-26T00:52:43.058Z,51.80
2018-12-26T00:53:14.452Z,51.80
2018-12-26T00:53:45.837Z,51.80
2018-12-26T00:54:17.001Z,51.80
2018-12-26T00:54:48.159Z,51.80
2018-12-26T00:55:19.323Z,51.80
2018-12-26T00:55:50.473Z,51.70
2018-12-26T00:56:21.856Z,51.80
2018-12-26T00:56:53.252Z,51.80
2018-12-26T00:57:24.411Z,51.80
2018-12-26T00:57:55.552Z,51.80
2018-12-26T00:58:26.939Z,51.90
2018-12-26T00:58:58.093Z,51.80
2018-12-26T00:59:29.244Z,51.80
2018-12-26T01:00:00.418Z,51.90
2018-12-26T01:00:31.802Z,51.90
2018-12-26T01:01:02.960Z,51.90
2018-12-26T01:01:34.108Z,51.90
2018-12-26T01:02:05.260Z,51.90
2018-12-26T01:02:36.404Z,51.80
2018-12-26T01:03:07.562Z,51.80
2018-12-26T01:03:38.701Z,51.80
2018-12-26T01:04:09.848Z,51.80
2018-12-26T01:04:40.999Z,51.80
2018-12-26T01:05:12.170Z,51.80
2018-12-26T01:05:43.334Z,51.80
2018-12-26T01:06:14.545Z,51.90
2018-12-26T01:06:45.697Z,51.90
2018-12-26T01:07:16.842Z,51.80
2018-12-26T01:07:47.995Z,51.80
2018-12-26T01:08:19.144Z,51.80
2018-12-26T01:08:50.535Z,51.80
2018-12-26T01:09:21.683Z,51.70
2018-12-26T01:09:52.832Z,51.70
2018-12-26T01:10:24.006Z,51.70
2018-12-26T01:10:55.163Z,51.70
2018-12-26T01:11:26.546Z,51.70
2018-12-26T01:11:57.930Z,51.70
2018-12-26T01:12:29.085Z,51.80
2018-12-26T01:13:00.242Z,51.70
2018-12-26T01:13:31.382Z,51.70
2018-12-26T01:14:02.552Z,51.80
2018-12-26T01:14:33.686Z,51.70
2018-12-26T01:15:04.835Z,51.70
2018-12-26T01:15:36.257Z,51.70
2018-12-26T01:16:07.409Z,51.80
2018-12-26T01:17:28.905Z,51.70
2018-12-26T01:18:00.054Z,51.70
2018-12-26T01:18:31.199Z,51.70
2018-12-26T01:19:02.339Z,51.70
2018-12-26T01:19:33.487Z,51.70
2018-12-26T01:20:04.631Z,51.80
2018-12-26T01:20:35.801Z,51.80
2018-12-26T01:21:06.948Z,51.80
2018-12-26T01:21:38.097Z,51.80
2018-12-26T01:22:09.247Z,51.80
2018-12-26T01:22:40.632Z,51.90
2018-12-26T01:23:12.034Z,51.80
2018-12-26T01:23:43.176Z,51.90
2018-12-26T01:24:14.569Z,51.80
2018-12-26T01:24:45.717Z,51.80
2018-12-26T01:25:16.881Z,51.90
2018-12-26T01:25:48.037Z,51.80
2018-12-26T01:26:19.503Z,51.80
2018-12-26T01:26:50.715Z,51.90
2018-12-26T01:27:21.864Z,51.80
2018-12-26T01:27:53.014Z,51.90
2018-12-26T01:28:24.163Z,51.80
2018-12-26T01:28:55.317Z,51.80
2018-12-26T01:29:26.458Z,51.80
2018-12-26T01:29:57.605Z,51.80
2018-12-26T01:30:29.012Z,51.80
2018-12-26T01:31:00.163Z,51.80
2018-12-26T01:31:31.310Z,51.70
2018-12-26T01:32:02.458Z,51.70
2018-12-26T01:32:33.605Z,51.70
2018-12-26T01:33:05.007Z,51.60
2018-12-26T01:33:36.158Z,51.60
2018-12-26T01:34:07.305Z,51.70
2018-12-26T01:34:38.690Z,51.60
2018-12-26T01:35:10.102Z,51.60
2018-12-26T01:35:41.346Z,51.70
2018-12-26T01:36:12.488Z,51.70
2018-12-26T01:36:43.631Z,51.60
2018-12-26T01:37:14.991Z,51.60
2018-12-26T01:37:46.142Z,51.60
2018-12-26T01:38:17.290Z,51.60
2018-12-26T01:38:48.522Z,51.50
2018-12-26T01:39:19.927Z,51.60
2018-12-26T01:39:51.075Z,51.60
2018-12-26T01:40:22.295Z,51.50
2018-12-26T01:40:53.467Z,51.50
2018-12-26T01:41:24.616Z,51.60
2018-12-26T01:41:55.999Z,51.60
2018-12-26T01:42:27.394Z,51.60
2018-12-26T01:42:58.820Z,51.60
2018-12-26T01:43:29.969Z,51.70
2018-12-26T01:44:01.115Z,51.70
2018-12-26T01:44:32.257Z,51.70
2018-12-26T01:45:03.403Z,51.70
2018-12-26T01:45:34.564Z,51.70
2018-12-26T01:46:05.704Z,51.70
2018-12-26T01:46:36.848Z,51.70
2018-12-26T01:47:08.016Z,51.80
2018-12-26T01:47:39.154Z,51.80
2018-12-26T01:48:10.301Z,51.80
2018-12-26T01:48:41.685Z,51.80
2018-12-26T01:49:12.828Z,51.80
2018-12-26T01:49:44.061Z,51.80
2018-12-26T01:50:15.213Z,51.80
2018-12-26T01:50:46.399Z,51.80
2018-12-26T01:51:17.565Z,51.80
2018-12-26T01:51:48.713Z,51.90
2018-12-26T01:52:19.865Z,51.80
2018-12-26T01:52:51.025Z,51.80
2018-12-26T01:53:22.188Z,51.70
2018-12-26T01:53:53.333Z,51.70
2018-12-26T01:54:24.477Z,51.70
2018-12-26T01:54:55.621Z,51.70
2018-12-26T01:55:26.771Z,51.70
2018-12-26T01:55:58.102Z,51.70
2018-12-26T01:56:29.508Z,51.70
2018-12-26T01:57:00.907Z,51.70
2018-12-26T01:57:32.074Z,51.60
2018-12-26T01:58:03.472Z,51.60
2018-12-26T01:58:34.867Z,51.60
2018-12-26T01:59:07.069Z,51.60
2018-12-26T01:59:38.338Z,51.60
2018-12-26T02:00:09.483Z,51.60
2018-12-26T02:00:40.878Z,51.60
2018-12-26T02:01:12.048Z,51.60
2018-12-26T02:01:43.187Z,51.60
2018-12-26T02:02:14.327Z,51.60
2018-12-26T02:02:45.471Z,51.60
2018-12-26T02:03:16.615Z,51.60
2018-12-26T02:03:47.759Z,51.60
2018-12-26T02:04:18.910Z,51.60
2018-12-26T02:04:50.299Z,51.60
2018-12-26T02:05:21.439Z,51.60
2018-12-26T02:05:52.856Z,51.60
2018-12-26T02:06:24.017Z,51.60
2018-12-26T02:06:55.164Z,51.70
2018-12-26T02:07:26.313Z,51.60
2018-12-26T02:07:57.474Z,51.70
2018-12-26T02:08:28.917Z,51.60
2018-12-26T02:09:00.064Z,51.60
2018-12-26T02:09:31.285Z,51.60
2018-12-26T02:10:02.456Z,51.60
2018-12-26T02:10:33.656Z,51.60
2018-12-26T02:11:04.877Z,51.60
2018-12-26T02:11:36.044Z,51.60
2018-12-26T02:12:07.192Z,51.60
2018-12-26T02:12:38.420Z,51.60
2018-12-26T02:13:09.565Z,51.60
2018-12-26T02:13:40.714Z,51.60
2018-12-26T02:14:12.117Z,51.60
2018-12-26T02:14:43.322Z,51.60
2018-12-26T02:15:14.479Z,51.60
2018-12-26T02:15:45.637Z,51.60
2018-12-26T02:16:17.078Z,51.50
2018-12-26T02:16:48.233Z,51.60
2018-12-26T02:17:19.386Z,51.60
2018-12-26T02:17:50.538Z,51.50
2018-12-26T02:18:21.695Z,51.60
2018-12-26T02:18:52.850Z,51.60
2018-12-26T02:19:24.307Z,51.60
2018-12-26T02:19:55.754Z,51.60
2018-12-26T02:20:26.900Z,51.60
2018-12-26T02:20:58.038Z,51.60
2018-12-26T02:21:29.182Z,51.60
2018-12-26T02:22:00.346Z,51.60
2018-12-26T02:22:31.498Z,51.60
2018-12-26T02:23:02.638Z,51.60
2018-12-26T02:23:34.046Z,51.60
2018-12-26T02:24:05.443Z,51.60
2018-12-26T02:24:36.603Z,51.60
2018-12-26T02:25:07.749Z,51.70
2018-12-26T02:25:38.888Z,51.70
2018-12-26T02:26:10.039Z,51.70
2018-12-26T02:26:41.188Z,51.70
2018-12-26T02:27:12.351Z,51.70
2018-12-26T02:27:43.515Z,51.70
2018-12-26T02:28:14.660Z,51.70
2018-12-26T02:28:45.829Z,51.70
2018-12-26T02:29:16.976Z,51.70
2018-12-26T02:29:48.221Z,51.70
2018-12-26T02:30:19.590Z,51.60
2018-12-26T02:30:50.732Z,51.70
2018-12-26T02:31:21.882Z,51.70
2018-12-26T02:31:53.073Z,51.70
2018-12-26T02:32:24.281Z,51.60
2018-12-26T02:32:55.705Z,51.60
2018-12-26T02:33:26.853Z,51.70
2018-12-26T02:33:58.009Z,51.60
2018-12-26T02:34:29.158Z,51.60
2018-12-26T02:35:00.385Z,51.60
2018-12-26T02:35:31.634Z,51.60
2018-12-26T02:36:03.024Z,51.60
2018-12-26T02:36:34.169Z,51.60
2018-12-26T02:37:05.343Z,51.60
2018-12-26T02:37:36.489Z,51.60
2018-12-26T02:38:07.661Z,51.60
2018-12-26T02:38:38.856Z,51.60
2018-12-26T02:39:10.004Z,51.60
2018-12-26T02:39:41.157Z,51.50
2018-12-26T02:40:12.313Z,51.50
2018-12-26T02:40:43.457Z,51.50
2018-12-26T02:41:14.614Z,51.40
2018-12-26T02:41:45.758Z,51.40
2018-12-26T02:42:16.922Z,51.40
2018-12-26T02:42:48.315Z,51.40
2018-12-26T02:43:19.450Z,51.50
2018-12-26T02:43:50.608Z,51.40
2018-12-26T02:44:21.941Z,51.40
2018-12-26T02:44:53.167Z,51.50
2018-12-26T02:45:24.306Z,51.50
2018-12-26T02:45:55.451Z,51.40
2018-12-26T02:46:26.612Z,51.30
2018-12-26T02:46:57.752Z,51.30
2018-12-26T02:47:28.933Z,51.30
2018-12-26T02:48:00.083Z,51.30
2018-12-26T02:48:31.220Z,51.20
2018-12-26T02:49:02.372Z,51.20
2018-12-26T02:49:33.751Z,51.30
2018-12-26T02:50:05.147Z,51.30
2018-12-26T02:50:36.536Z,51.30
2018-12-26T02:51:07.922Z,51.30
2018-12-26T02:51:39.068Z,51.30
2018-12-26T02:52:10.453Z,51.40
2018-12-26T02:52:41.615Z,51.40
2018-12-26T02:53:12.759Z,51.40
2018-12-26T02:53:43.907Z,51.40
2018-12-26T02:54:15.315Z,51.40
2018-12-26T02:54:46.461Z,51.50
2018-12-26T02:55:17.611Z,51.60
2018-12-26T02:55:48.762Z,51.50
2018-12-26T02:56:19.910Z,51.60
2018-12-26T02:56:51.308Z,51.60
2018-12-26T02:57:22.486Z,51.60
2018-12-26T02:57:53.629Z,51.60
2018-12-26T02:58:24.777Z,51.60
2018-12-26T02:58:56.170Z,51.60
2018-12-26T02:59:27.318Z,51.60
2018-12-26T02:59:58.466Z,51.60
2018-12-26T03:00:29.613Z,51.60
2018-12-26T03:01:00.758Z,51.50
2018-12-26T03:01:31.904Z,51.50
2018-12-26T03:02:03.098Z,51.50
2018-12-26T03:02:34.265Z,51.50
2018-12-26T03:03:05.418Z,51.50
2018-12-26T03:03:36.572Z,51.50
2018-12-26T03:04:07.749Z,51.60
2018-12-26T03:04:38.894Z,51.50
2018-12-26T03:05:10.041Z,51.50
2018-12-26T03:05:41.434Z,51.50
2018-12-26T03:06:12.614Z,51.50
2018-12-26T03:06:43.768Z,51.50
2018-12-26T03:07:14.914Z,51.40
2018-12-26T03:07:46.085Z,51.40
2018-12-26T03:08:17.499Z,51.30
2018-12-26T03:08:48.647Z,51.30
2018-12-26T03:09:19.782Z,51.30
2018-12-26T03:09:50.944Z,51.30
2018-12-26T03:10:22.098Z,51.30
2018-12-26T03:10:53.235Z,51.40
2018-12-26T03:11:24.419Z,51.30
2018-12-26T03:11:55.558Z,51.40
2018-12-26T03:12:26.709Z,51.30
2018-12-26T03:12:57.871Z,51.40
2018-12-26T03:13:29.020Z,51.40
2018-12-26T03:14:00.163Z,51.30
2018-12-26T03:14:31.547Z,51.40
2018-12-26T03:15:02.695Z,51.30
2018-12-26T03:15:33.847Z,51.30
2018-12-26T03:16:05.236Z,51.40
2018-12-26T03:16:36.383Z,51.40
2018-12-26T03:17:07.538Z,51.40
2018-12-26T03:17:38.967Z,51.30
2018-12-26T03:18:10.112Z,51.40
2018-12-26T03:18:41.517Z,51.40
2018-12-26T03:19:12.696Z,51.30
2018-12-26T03:19:43.843Z,51.30
2018-12-26T03:20:14.985Z,51.30
2018-12-26T03:20:46.129Z,51.40
2018-12-26T03:21:17.291Z,51.30
2018-12-26T03:21:48.460Z,51.30
2018-12-26T03:22:19.641Z,51.20
2018-12-26T03:22:50.806Z,51.20
2018-12-26T03:23:22.185Z,51.20
2018-12-26T03:23:53.332Z,51.20
2018-12-26T03:24:24.480Z,51.20
2018-12-26T03:24:55.629Z,51.20
2018-12-26T03:25:26.778Z,51.20
2018-12-26T03:25:57.926Z,51.20
2018-12-26T03:26:29.399Z,51.30
2018-12-26T03:27:00.833Z,51.20
2018-12-26T03:27:31.980Z,51.30
2018-12-26T03:28:03.150Z,51.30
2018-12-26T03:28:34.343Z,51.30
2018-12-26T03:29:05.537Z,51.30
2018-12-26T03:29:36.693Z,51.20
2018-12-26T03:30:07.842Z,51.30
2018-12-26T03:30:38.991Z,51.30
2018-12-26T03:31:10.135Z,51.30
2018-12-26T03:31:41.470Z,51.40
2018-12-26T03:32:12.620Z,51.40
2018-12-26T03:32:43.764Z,51.40
2018-12-26T03:33:14.921Z,51.40
2018-12-26T03:33:46.322Z,51.40
2018-12-26T03:34:17.473Z,51.40
2018-12-26T03:34:48.670Z,51.50
2018-12-26T03:35:19.822Z,51.50
2018-12-26T03:35:50.960Z,51.50
2018-12-26T03:36:22.133Z,51.50
2018-12-26T03:36:53.383Z,51.50
2018-12-26T03:37:24.522Z,51.50
2018-12-26T03:37:55.672Z,51.60
2018-12-26T03:38:26.829Z,51.50
2018-12-26T03:38:58.231Z,51.50
2018-12-26T03:39:29.384Z,51.40
2018-12-26T03:40:00.528Z,51.40
2018-12-26T03:40:31.675Z,51.50
2018-12-26T03:41:03.078Z,51.40
2018-12-26T03:41:34.222Z,51.40
2018-12-26T03:42:05.364Z,51.30
2018-12-26T03:42:36.528Z,51.40
2018-12-26T03:43:07.702Z,51.30
2018-12-26T03:43:38.839Z,51.30
2018-12-26T03:44:09.985Z,51.20
2018-12-26T03:44:41.390Z,51.20
2018-12-26T03:45:12.781Z,51.10
2018-12-26T03:45:43.929Z,51.10
2018-12-26T03:46:15.096Z,51.10
2018-12-26T03:46:46.487Z,51.10
2018-12-26T03:47:17.633Z,51.10
2018-12-26T03:47:48.781Z,51.10
2018-12-26T03:48:19.938Z,51.10
2018-12-26T03:48:51.085Z,51.00
2018-12-26T03:49:22.254Z,51.00
2018-12-26T03:49:53.396Z,51.00
2018-12-26T03:50:24.814Z,51.00
2018-12-26T03:50:55.958Z,51.00
2018-12-26T03:51:27.109Z,51.00
2018-12-26T03:51:58.273Z,51.10
2018-12-26T03:52:29.681Z,51.10
2018-12-26T03:53:00.848Z,51.00
2018-12-26T03:53:32.021Z,51.10
2018-12-26T03:54:03.166Z,51.00
2018-12-26T03:54:34.340Z,51.00
2018-12-26T03:55:05.490Z,50.90
2018-12-26T03:55:36.638Z,50.90
2018-12-26T03:56:07.941Z,51.00
2018-12-26T03:56:39.111Z,50.90
2018-12-26T03:57:10.511Z,51.00
2018-12-26T03:57:41.654Z,51.00
2018-12-26T03:58:12.795Z,51.00
2018-12-26T03:58:43.958Z,51.00
2018-12-26T03:59:15.107Z,51.00
2018-12-26T03:59:46.255Z,51.00
2018-12-26T04:00:17.403Z,51.00
2018-12-26T04:00:48.589Z,51.70
2018-12-26T04:01:19.733Z,51.10
2018-12-26T04:01:50.877Z,51.10
2018-12-26T04:02:22.023Z,51.10
2018-12-26T04:02:53.267Z,51.20
2018-12-26T04:03:24.408Z,51.10
2018-12-26T04:03:55.579Z,51.80
2018-12-26T04:04:26.724Z,51.10
2018-12-26T04:04:57.880Z,51.10
2018-12-26T04:05:29.023Z,51.10
2018-12-26T04:06:00.172Z,51.10
2018-12-26T04:06:31.562Z,51.10
2018-12-26T04:07:02.708Z,51.10
2018-12-26T04:07:33.856Z,51.10
2018-12-26T04:08:05.028Z,51.10
2018-12-26T04:08:36.194Z,51.10
2018-12-26T04:09:07.343Z,51.10
2018-12-26T04:09:38.485Z,51.10
2018-12-26T04:10:09.631Z,51.10
2018-12-26T04:10:40.778Z,51.10
2018-12-26T04:11:12.178Z,51.10
2018-12-26T04:11:43.328Z,51.10
2018-12-26T04:12:14.504Z,51.20
2018-12-26T04:12:45.702Z,51.20
2018-12-26T04:13:16.858Z,51.30
2018-12-26T04:13:48.268Z,51.20
2018-12-26T04:14:19.416Z,51.20
2018-12-26T04:14:50.566Z,51.20
2018-12-26T04:15:21.715Z,51.20
2018-12-26T04:15:52.862Z,51.20
2018-12-26T04:16:24.019Z,51.10
2018-12-26T04:16:55.175Z,51.10
2018-12-26T04:17:26.328Z,51.10
2018-12-26T04:17:57.470Z,51.20
2018-12-26T04:18:28.670Z,51.20
2018-12-26T04:18:59.830Z,51.10
2018-12-26T04:19:31.005Z,51.20
2018-12-26T04:20:02.136Z,51.20
2018-12-26T04:20:33.300Z,51.20
2018-12-26T04:21:04.443Z,51.20
2018-12-26T04:21:35.590Z,51.20
2018-12-26T04:22:06.734Z,51.10
2018-12-26T04:22:37.880Z,51.00
2018-12-26T04:23:09.025Z,51.00
2018-12-26T04:23:40.167Z,51.00
2018-12-26T04:24:11.574Z,51.00
2018-12-26T04:24:42.739Z,51.00
2018-12-26T04:25:13.887Z,50.90
2018-12-26T04:25:45.035Z,50.90
2018-12-26T04:26:16.424Z,50.90
2018-12-26T04:26:47.567Z,50.80
2018-12-26T04:27:18.742Z,50.90
2018-12-26T04:27:50.224Z,51.00
2018-12-26T04:28:21.376Z,50.80
2018-12-26T04:28:52.517Z,50.80
2018-12-26T04:29:23.712Z,50.80
2018-12-26T04:29:54.873Z,50.90
2018-12-26T04:30:26.040Z,50.90
2018-12-26T04:30:57.241Z,50.80
2018-12-26T04:31:28.636Z,50.80
2018-12-26T04:31:59.820Z,50.70
2018-12-26T04:32:30.969Z,50.70
2018-12-26T04:33:02.127Z,50.70
2018-12-26T04:33:33.274Z,50.70
2018-12-26T04:34:04.705Z,50.70
2018-12-26T04:34:35.874Z,50.70
2018-12-26T04:35:07.021Z,50.70
2018-12-26T04:35:38.180Z,50.80
2018-12-26T04:36:09.341Z,50.70
2018-12-26T04:36:40.485Z,50.80
2018-12-26T04:37:11.680Z,50.80
2018-12-26T04:37:42.841Z,50.90
2018-12-26T04:38:14.160Z,50.90
2018-12-26T04:38:45.354Z,51.00
2018-12-26T04:39:16.503Z,51.00
2018-12-26T04:39:47.674Z,51.00
2018-12-26T04:40:18.849Z,51.00
2018-12-26T04:40:50.226Z,51.00
2018-12-26T04:41:21.622Z,50.90
2018-12-26T04:41:52.785Z,51.00
2018-12-26T04:42:23.912Z,51.00
2018-12-26T04:42:55.070Z,51.00
2018-12-26T04:43:26.211Z,51.00
2018-12-26T04:43:57.394Z,51.00
2018-12-26T04:44:28.559Z,51.00
2018-12-26T04:44:59.696Z,51.00
2018-12-26T04:45:30.863Z,51.10
2018-12-26T04:46:02.033Z,51.00
2018-12-26T04:46:33.192Z,51.10
2018-12-26T04:47:04.335Z,51.10
2018-12-26T04:47:35.503Z,51.10
2018-12-26T04:48:06.652Z,51.00
2018-12-26T04:48:37.808Z,51.00
2018-12-26T04:49:08.962Z,51.00
2018-12-26T04:49:40.211Z,50.90
2018-12-26T04:50:11.365Z,50.90
2018-12-26T04:50:42.764Z,50.90
2018-12-26T04:51:13.908Z,50.90
2018-12-26T04:51:45.094Z,50.90
2018-12-26T04:52:16.239Z,50.90
2018-12-26T04:52:47.396Z,50.90
2018-12-26T04:53:18.541Z,50.90
2018-12-26T04:53:49.688Z,50.90
2018-12-26T04:54:20.842Z,50.90
2018-12-26T04:54:52.273Z,50.90
2018-12-26T04:55:23.418Z,50.90
2018-12-26T04:55:54.588Z,51.00
2018-12-26T04:56:25.729Z,51.00
2018-12-26T04:56:56.905Z,50.90
2018-12-26T04:57:28.053Z,50.90
2018-12-26T04:57:59.198Z,51.00
2018-12-26T04:58:30.594Z,50.90
2018-12-26T04:59:01.769Z,51.00
2018-12-26T04:59:32.918Z,51.00
2018-12-26T05:00:04.112Z,51.00
2018-12-26T05:00:35.313Z,51.00
2018-12-26T05:01:06.466Z,51.00
2018-12-26T05:01:37.854Z,51.00
2018-12-26T05:02:09.011Z,50.90
2018-12-26T05:02:40.398Z,50.90
2018-12-26T05:03:11.583Z,50.90
2018-12-26T05:03:42.731Z,50.80
2018-12-26T05:04:13.874Z,50.80
2018-12-26T05:04:45.028Z,50.80
2018-12-26T05:05:16.210Z,50.80
2018-12-26T05:05:47.351Z,50.70
2018-12-26T05:06:18.533Z,50.70
2018-12-26T05:06:49.682Z,50.70
2018-12-26T05:07:20.822Z,50.80
2018-12-26T05:07:51.972Z,50.80
2018-12-26T05:08:23.135Z,50.80
2018-12-26T05:08:54.282Z,50.70
2018-12-26T05:09:25.433Z,50.70
2018-12-26T05:09:56.585Z,50.70
2018-12-26T05:10:27.731Z,50.70
2018-12-26T05:10:58.879Z,50.80
2018-12-26T05:11:30.022Z,50.60
2018-12-26T05:12:01.172Z,50.60
2018-12-26T05:12:32.319Z,50.60
2018-12-26T05:13:03.468Z,50.60
2018-12-26T05:13:34.611Z,50.60
2018-12-26T05:14:05.772Z,50.60
2018-12-26T05:14:37.156Z,50.60
2018-12-26T05:15:08.319Z,50.70
2018-12-26T05:15:39.467Z,50.70
2018-12-26T05:16:10.869Z,50.70
2018-12-26T05:16:42.014Z,50.70
2018-12-26T05:17:13.157Z,50.80
2018-12-26T05:17:44.304Z,50.70
2018-12-26T05:18:15.449Z,50.80
2018-12-26T05:18:46.596Z,50.80
2018-12-26T05:19:17.740Z,50.80
2018-12-26T05:19:49.142Z,50.80
2018-12-26T05:20:20.308Z,50.80
2018-12-26T05:20:51.457Z,50.80
2018-12-26T05:21:22.605Z,50.80
2018-12-26T05:21:53.749Z,50.90
2018-12-26T05:22:24.900Z,50.80
2018-12-26T05:22:56.042Z,50.90
2018-12-26T05:23:27.185Z,50.90
2018-12-26T05:23:58.339Z,50.80
2018-12-26T05:24:29.477Z,50.80
2018-12-26T05:25:00.625Z,50.80
2018-12-26T05:25:31.789Z,50.70
2018-12-26T05:26:02.938Z,50.70
2018-12-26T05:26:34.318Z,50.70
2018-12-26T05:27:05.471Z,50.70
2018-12-26T05:27:36.614Z,50.60
2018-12-26T05:28:07.835Z,50.60
2018-12-26T05:28:38.995Z,50.50
2018-12-26T05:29:10.131Z,50.50
2018-12-26T05:29:41.274Z,50.50
2018-12-26T05:30:12.710Z,50.60
2018-12-26T05:30:43.858Z,50.60
2018-12-26T05:31:15.000Z,50.60
2018-12-26T05:31:46.387Z,50.50
2018-12-26T05:32:17.554Z,50.60
2018-12-26T05:32:48.699Z,50.60
2018-12-26T05:33:19.843Z,50.60
2018-12-26T05:33:50.987Z,50.60
2018-12-26T05:34:22.367Z,50.60
2018-12-26T05:34:53.519Z,50.50
2018-12-26T05:35:24.694Z,50.50
2018-12-26T05:35:55.847Z,50.50
2018-12-26T05:36:26.995Z,50.40
2018-12-26T05:36:58.151Z,50.40
2018-12-26T05:37:29.303Z,50.40
2018-12-26T05:38:00.448Z,50.40
2018-12-26T05:38:31.592Z,50.40
2018-12-26T05:39:02.764Z,50.40
2018-12-26T05:39:33.956Z,50.50
2018-12-26T05:40:05.100Z,50.40
2018-12-26T05:40:36.280Z,50.50
2018-12-26T05:41:07.423Z,50.50
2018-12-26T05:41:38.571Z,50.50
2018-12-26T05:42:09.720Z,50.50
2018-12-26T05:42:40.872Z,50.60
2018-12-26T05:43:12.012Z,50.60
2018-12-26T05:43:43.400Z,50.60
2018-12-26T05:44:14.785Z,50.50
2018-12-26T05:44:45.933Z,50.60
2018-12-26T05:45:17.329Z,50.60
2018-12-26T05:45:48.790Z,50.60
2018-12-26T05:46:19.966Z,50.60
2018-12-26T05:46:51.353Z,50.60
2018-12-26T05:47:22.746Z,50.60
2018-12-26T05:47:53.897Z,50.60
2018-12-26T05:48:25.040Z,50.70
2018-12-26T05:48:56.189Z,50.60
2018-12-26T05:49:27.337Z,50.60
2018-12-26T05:49:58.489Z,50.60
2018-12-26T05:50:29.642Z,50.60
2018-12-26T05:51:00.813Z,50.60
2018-12-26T05:51:31.966Z,50.60
2018-12-26T05:52:03.115Z,50.60
2018-12-26T05:52:34.285Z,50.60
2018-12-26T05:53:05.438Z,50.60
2018-12-26T05:53:36.823Z,50.60
2018-12-26T05:54:07.962Z,50.60
2018-12-26T05:54:39.359Z,50.60
2018-12-26T05:55:10.499Z,50.60
2018-12-26T05:55:41.647Z,50.60
2018-12-26T05:56:12.830Z,50.60
2018-12-26T05:56:43.974Z,50.60
2018-12-26T05:57:15.120Z,50.50
2018-12-26T05:57:46.260Z,50.50
2018-12-26T05:58:17.663Z,50.50
2018-12-26T05:58:48.807Z,50.60
2018-12-26T05:59:19.955Z,50.50
2018-12-26T05:59:51.119Z,50.60
2018-12-26T06:00:22.580Z,50.60
2018-12-26T06:00:53.732Z,50.60
2018-12-26T06:01:24.895Z,50.60
2018-12-26T06:01:56.048Z,50.60
2018-12-26T06:02:27.192Z,50.60
2018-12-26T06:02:58.336Z,50.60
2018-12-26T06:03:29.480Z,51.20
2018-12-26T06:04:00.624Z,50.60
2018-12-26T06:04:32.009Z,50.60
2018-12-26T06:05:03.152Z,50.60
2018-12-26T06:05:34.298Z,50.70
2018-12-26T06:06:05.445Z,50.60
2018-12-26T06:06:36.845Z,50.60
2018-12-26T06:07:08.233Z,50.60
2018-12-26T06:07:39.625Z,50.60
2018-12-26T06:08:10.773Z,50.60
2018-12-26T06:08:41.912Z,50.60
2018-12-26T06:09:13.306Z,50.60
2018-12-26T06:09:44.449Z,50.50
2018-12-26T06:10:15.837Z,50.50
2018-12-26T06:10:46.990Z,50.50
2018-12-26T06:11:18.402Z,50.50
2018-12-26T06:11:49.792Z,50.40
2018-12-26T06:12:20.931Z,50.70
2018-12-26T06:12:52.086Z,50.40
2018-12-26T06:13:23.225Z,50.40
2018-12-26T06:13:54.369Z,50.40
2018-12-26T06:14:25.523Z,51.00
2018-12-26T06:14:56.744Z,50.40
2018-12-26T06:15:28.121Z,50.50
2018-12-26T06:15:59.366Z,50.40
2018-12-26T06:16:30.550Z,50.50
2018-12-26T06:17:01.692Z,50.40
2018-12-26T06:17:32.838Z,50.40
2018-12-26T06:18:03.999Z,51.00
2018-12-26T06:18:35.145Z,51.10
2018-12-26T06:19:06.300Z,50.40
2018-12-26T06:19:37.438Z,50.50
2018-12-26T06:20:08.578Z,50.50
2018-12-26T06:20:39.978Z,50.50
2018-12-26T06:21:11.158Z,50.50
2018-12-26T06:21:42.303Z,50.50
2018-12-26T06:22:13.450Z,50.50
2018-12-26T06:22:44.594Z,50.50
2018-12-26T06:23:15.738Z,50.50
2018-12-26T06:23:47.123Z,50.50
2018-12-26T06:24:18.268Z,50.50
2018-12-26T06:24:49.417Z,50.50
2018-12-26T06:25:20.565Z,50.50
2018-12-26T06:25:51.712Z,50.50
2018-12-26T06:26:22.860Z,50.50
2018-12-26T06:26:54.027Z,50.60
2018-12-26T06:27:25.171Z,50.50
2018-12-26T06:27:56.316Z,50.40
2018-12-26T06:28:27.459Z,50.50
2018-12-26T06:28:58.603Z,50.40
2018-12-26T06:29:29.751Z,50.30
2018-12-26T06:30:00.898Z,50.30
2018-12-26T06:30:32.040Z,50.30
2018-12-26T06:31:03.194Z,50.30
2018-12-26T06:31:34.335Z,50.30
2018-12-26T06:32:05.504Z,50.90
2018-12-26T06:32:36.648Z,50.20
2018-12-26T06:33:07.805Z,50.30
2018-12-26T06:33:38.949Z,50.30
2018-12-26T06:34:10.104Z,50.30
2018-12-26T06:34:41.254Z,50.30
2018-12-26T06:35:12.642Z,50.90
2018-12-26T06:35:44.046Z,50.90
2018-12-26T06:36:15.199Z,50.30
2018-12-26T06:36:46.341Z,50.30
2018-12-26T06:37:17.782Z,50.30
2018-12-26T06:37:48.981Z,50.40
2018-12-26T06:38:20.155Z,50.30
2018-12-26T06:38:51.346Z,50.40
2018-12-26T06:39:22.498Z,50.30
2018-12-26T06:39:53.650Z,50.30
2018-12-26T06:40:24.796Z,50.30
2018-12-26T06:40:55.946Z,50.30
2018-12-26T06:41:27.367Z,50.30
2018-12-26T06:41:58.511Z,50.30
2018-12-26T06:42:29.914Z,50.30